sensor_id;sensor_type;location;lat;lon;timestamp;pressure;altitude;pressure_sealevel;temperature;humidity
72262;BME280;60173;52.112;8.648;2022-09-09T00:00:34;99900.75;;;14.11;83.77
72262;BME280;60173;52.112;8.648;2022-09-09T00:03:46;99894.09;;;14.00;83.31
72262;BME280;60173;52.112;8.648;2022-09-09T00:06:37;99894.38;;;14.07;83.98
72262;BME280;60173;52.112;8.648;2022-09-09T00:09:12;99893.09;;;14.05;83.80
72262;BME280;60173;52.112;8.648;2022-09-09T00:20:30;99898.72;;;13.87;84.51
72262;BME280;60173;52.112;8.648;2022-09-09T00:23:23;99895.50;;;13.85;84.56
72262;BME280;60173;52.112;8.648;2022-09-09T00:28:39;99893.44;;;13.82;84.78
72262;BME280;60173;52.112;8.648;2022-09-09T00:31:13;99896.16;;;13.82;84.97
72262;BME280;60173;52.112;8.648;2022-09-09T00:33:40;99894.78;;;13.76;85.10
72262;BME280;60173;52.112;8.648;2022-09-09T00:36:16;99897.31;;;13.81;85.37
72262;BME280;60173;52.112;8.648;2022-09-09T00:38:56;99885.84;;;13.88;85.34
72262;BME280;60173;52.112;8.648;2022-09-09T00:42:08;99884.50;;;13.94;85.17
72262;BME280;60173;52.112;8.648;2022-09-09T00:44:38;99890.66;;;14.12;84.92
72262;BME280;60173;52.112;8.648;2022-09-09T00:47:12;99894.09;;;14.21;84.50
72262;BME280;60173;52.112;8.648;2022-09-09T00:52:40;99891.44;;;14.12;84.14
72262;BME280;60173;52.112;8.648;2022-09-09T00:58:02;99888.53;;;14.30;83.70
72262;BME280;60173;52.112;8.648;2022-09-09T01:00:31;99886.22;;;14.19;83.72
72262;BME280;60173;52.112;8.648;2022-09-09T01:11:20;99878.94;;;13.90;84.69
72262;BME280;60173;52.112;8.648;2022-09-09T01:13:53;99868.00;;;13.90;85.16
72262;BME280;60173;52.112;8.648;2022-09-09T01:16:22;99874.94;;;13.88;85.14
72262;BME280;60173;52.112;8.648;2022-09-09T01:18:51;99873.66;;;13.85;85.44
72262;BME280;60173;52.112;8.648;2022-09-09T01:24:08;99870.16;;;13.85;85.25
72262;BME280;60173;52.112;8.648;2022-09-09T01:26:48;99876.69;;;13.92;85.25
72262;BME280;60173;52.112;8.648;2022-09-09T01:29:17;99880.78;;;13.98;85.34
72262;BME280;60173;52.112;8.648;2022-09-09T01:31:59;99882.38;;;13.99;85.13
72262;BME280;60173;52.112;8.648;2022-09-09T01:34:31;99871.72;;;14.07;84.78
72262;BME280;60173;52.112;8.648;2022-09-09T01:37:09;99875.34;;;13.98;85.13
72262;BME280;60173;52.112;8.648;2022-09-09T01:39:39;99876.25;;;14.02;85.26
72262;BME280;60173;52.112;8.648;2022-09-09T01:42:09;99869.19;;;14.01;85.39
72262;BME280;60173;52.112;8.648;2022-09-09T01:44:36;99876.78;;;13.96;85.65
72262;BME280;60173;52.112;8.648;2022-09-09T01:47:04;99868.13;;;13.94;85.64
72262;BME280;60173;52.112;8.648;2022-09-09T01:49:31;99878.06;;;13.98;85.92
72262;BME280;60173;52.112;8.648;2022-09-09T01:51:58;99871.28;;;14.17;85.25
72262;BME280;60173;52.112;8.648;2022-09-09T01:54:28;99878.88;;;14.32;84.39
72262;BME280;60173;52.112;8.648;2022-09-09T02:05:17;99881.38;;;14.37;83.46
72262;BME280;60173;52.112;8.648;2022-09-09T02:07:50;99875.75;;;14.55;83.36
72262;BME280;60173;52.112;8.648;2022-09-09T02:10:25;99877.59;;;14.63;82.97
72262;BME280;60173;52.112;8.648;2022-09-09T02:13:05;99881.94;;;14.64;82.75
72262;BME280;60173;52.112;8.648;2022-09-09T02:18:07;99881.25;;;14.67;82.95
72262;BME280;60173;52.112;8.648;2022-09-09T02:20:37;99872.50;;;14.86;82.12
72262;BME280;60173;52.112;8.648;2022-09-09T02:23:05;99882.84;;;14.80;81.78
72262;BME280;60173;52.112;8.648;2022-09-09T02:25:33;99886.28;;;14.77;82.09
72262;BME280;60173;52.112;8.648;2022-09-09T02:28:01;99884.56;;;14.73;82.23
72262;BME280;60173;52.112;8.648;2022-09-09T02:30:32;99890.13;;;14.64;82.26
72262;BME280;60173;52.112;8.648;2022-09-09T02:33:03;99896.25;;;14.61;82.57
72262;BME280;60173;52.112;8.648;2022-09-09T02:35:32;99891.22;;;14.51;82.95
72262;BME280;60173;52.112;8.648;2022-09-09T02:38:02;99897.09;;;14.40;83.47
72262;BME280;60173;52.112;8.648;2022-09-09T02:40:30;99895.63;;;14.43;83.54
72262;BME280;60173;52.112;8.648;2022-09-09T02:42:56;99895.09;;;14.50;83.40
72262;BME280;60173;52.112;8.648;2022-09-09T02:45:25;99896.66;;;14.51;83.21
72262;BME280;60173;52.112;8.648;2022-09-09T02:48:11;99891.63;;;14.40;83.48
72262;BME280;60173;52.112;8.648;2022-09-09T02:53:33;99901.97;;;14.35;83.71
72262;BME280;60173;52.112;8.648;2022-09-09T02:56:05;99898.44;;;14.34;84.05
72262;BME280;60173;52.112;8.648;2022-09-09T02:58:35;99897.31;;;14.35;84.32
72262;BME280;60173;52.112;8.648;2022-09-09T03:01:02;99901.63;;;14.36;84.53
72262;BME280;60173;52.112;8.648;2022-09-09T03:03:29;99903.69;;;14.39;84.61
72262;BME280;60173;52.112;8.648;2022-09-09T03:05:55;99904.16;;;14.41;84.48
72262;BME280;60173;52.112;8.648;2022-09-09T03:08:22;99905.19;;;14.49;84.60
72262;BME280;60173;52.112;8.648;2022-09-09T03:10:48;99908.59;;;14.46;84.44
72262;BME280;60173;52.112;8.648;2022-09-09T03:13:15;99909.22;;;14.52;84.20
72262;BME280;60173;52.112;8.648;2022-09-09T03:15:42;99905.59;;;14.60;83.85
72262;BME280;60173;52.112;8.648;2022-09-09T03:18:08;99904.00;;;14.59;83.74
72262;BME280;60173;52.112;8.648;2022-09-09T03:20:34;99899.66;;;14.58;83.59
72262;BME280;60173;52.112;8.648;2022-09-09T03:23:01;99900.56;;;14.50;84.23
72262;BME280;60173;52.112;8.648;2022-09-09T03:25:27;99893.47;;;14.48;84.54
72262;BME280;60173;52.112;8.648;2022-09-09T03:27:54;99898.50;;;14.46;84.82
72262;BME280;60173;52.112;8.648;2022-09-09T03:30:22;99895.09;;;14.50;84.63
72262;BME280;60173;52.112;8.648;2022-09-09T03:32:49;99902.75;;;14.56;84.41
72262;BME280;60173;52.112;8.648;2022-09-09T03:35:15;99900.88;;;14.48;84.34
72262;BME280;60173;52.112;8.648;2022-09-09T03:37:41;99897.34;;;14.47;84.42
72262;BME280;60173;52.112;8.648;2022-09-09T03:40:08;99899.72;;;14.49;84.28
72262;BME280;60173;52.112;8.648;2022-09-09T03:42:35;99898.03;;;14.44;84.61
72262;BME280;60173;52.112;8.648;2022-09-09T03:45:06;99897.66;;;14.34;85.06
72262;BME280;60173;52.112;8.648;2022-09-09T03:47:33;99891.69;;;14.19;85.67
72262;BME280;60173;52.112;8.648;2022-09-09T03:49:59;99898.19;;;14.27;85.68
72262;BME280;60173;52.112;8.648;2022-09-09T03:52:26;99897.53;;;14.30;85.67
72262;BME280;60173;52.112;8.648;2022-09-09T03:55:01;99895.47;;;14.27;85.73
72262;BME280;60173;52.112;8.648;2022-09-09T03:57:27;99905.72;;;14.30;85.84
72262;BME280;60173;52.112;8.648;2022-09-09T03:59:53;99886.31;;;14.44;85.45
72262;BME280;60173;52.112;8.648;2022-09-09T04:02:20;99891.88;;;14.47;85.46
72262;BME280;60173;52.112;8.648;2022-09-09T04:04:46;99895.75;;;14.46;85.62
72262;BME280;60173;52.112;8.648;2022-09-09T04:07:13;99894.72;;;14.39;85.68
72262;BME280;60173;52.112;8.648;2022-09-09T04:09:39;99896.19;;;14.48;85.64
72262;BME280;60173;52.112;8.648;2022-09-09T04:12:06;99890.63;;;14.45;85.55
72262;BME280;60173;52.112;8.648;2022-09-09T04:14:32;99893.47;;;14.48;85.51
72262;BME280;60173;52.112;8.648;2022-09-09T04:16:58;99891.22;;;14.51;85.82
72262;BME280;60173;52.112;8.648;2022-09-09T04:19:25;99893.94;;;14.51;86.03
72262;BME280;60173;52.112;8.648;2022-09-09T04:21:51;99892.16;;;14.55;85.88
72262;BME280;60173;52.112;8.648;2022-09-09T04:24:18;99896.81;;;14.54;85.99
72262;BME280;60173;52.112;8.648;2022-09-09T04:26:44;99898.81;;;14.45;86.27
72262;BME280;60173;52.112;8.648;2022-09-09T04:29:10;99904.00;;;14.59;86.12
72262;BME280;60173;52.112;8.648;2022-09-09T04:31:37;99906.06;;;14.62;86.03
72262;BME280;60173;52.112;8.648;2022-09-09T04:34:03;99915.84;;;14.63;86.17
72262;BME280;60173;52.112;8.648;2022-09-09T04:36:29;99903.13;;;14.67;85.99
72262;BME280;60173;52.112;8.648;2022-09-09T04:38:56;99909.03;;;14.69;86.23
72262;BME280;60173;52.112;8.648;2022-09-09T04:41:22;99909.28;;;14.76;86.06
72262;BME280;60173;52.112;8.648;2022-09-09T04:43:49;99904.72;;;14.68;86.22
72262;BME280;60173;52.112;8.648;2022-09-09T04:46:15;99909.03;;;14.69;86.19
72262;BME280;60173;52.112;8.648;2022-09-09T04:48:42;99915.22;;;14.78;85.87
72262;BME280;60173;52.112;8.648;2022-09-09T04:51:11;99916.44;;;14.68;85.46
72262;BME280;60173;52.112;8.648;2022-09-09T04:53:38;99917.59;;;14.67;86.03
72262;BME280;60173;52.112;8.648;2022-09-09T04:56:06;99920.44;;;14.83;85.74
72262;BME280;60173;52.112;8.648;2022-09-09T04:58:33;99918.41;;;14.80;86.31
72262;BME280;60173;52.112;8.648;2022-09-09T05:01:07;99905.50;;;14.68;87.04
72262;BME280;60173;52.112;8.648;2022-09-09T05:03:34;99902.66;;;14.65;87.64
72262;BME280;60173;52.112;8.648;2022-09-09T05:06:07;99909.03;;;14.69;87.53
72262;BME280;60173;52.112;8.648;2022-09-09T05:08:35;99912.78;;;14.64;87.91
72262;BME280;60173;52.112;8.648;2022-09-09T05:11:01;99914.72;;;14.64;88.13
72262;BME280;60173;52.112;8.648;2022-09-09T05:13:28;99917.09;;;14.53;88.59
72262;BME280;60173;52.112;8.648;2022-09-09T05:15:55;99922.63;;;14.44;88.99
72262;BME280;60173;52.112;8.648;2022-09-09T05:18:21;99920.94;;;14.52;89.17
72262;BME280;60173;52.112;8.648;2022-09-09T05:20:48;99931.72;;;14.48;89.26
72262;BME280;60173;52.112;8.648;2022-09-09T05:23:15;99924.94;;;14.55;89.22
72262;BME280;60173;52.112;8.648;2022-09-09T05:25:41;99926.78;;;14.63;89.14
72262;BME280;60173;52.112;8.648;2022-09-09T05:28:07;99924.53;;;14.65;89.27
72262;BME280;60173;52.112;8.648;2022-09-09T05:30:34;99925.44;;;14.69;89.15
72262;BME280;60173;52.112;8.648;2022-09-09T05:33:00;99926.00;;;14.75;88.73
72262;BME280;60173;52.112;8.648;2022-09-09T05:35:26;99923.97;;;14.72;88.91
72262;BME280;60173;52.112;8.648;2022-09-09T05:37:53;99917.81;;;14.75;88.91
72262;BME280;60173;52.112;8.648;2022-09-09T05:40:19;99925.13;;;14.83;88.80
72262;BME280;60173;52.112;8.648;2022-09-09T05:42:45;99923.88;;;14.92;88.66
72262;BME280;60173;52.112;8.648;2022-09-09T05:45:12;99917.41;;;15.09;88.00
72262;BME280;60173;52.112;8.648;2022-09-09T05:47:38;99915.91;;;15.12;87.50
72262;BME280;60173;52.112;8.648;2022-09-09T05:50:05;99915.91;;;15.12;87.33
72262;BME280;60173;52.112;8.648;2022-09-09T05:52:31;99930.28;;;15.09;87.56
72262;BME280;60173;52.112;8.648;2022-09-09T05:54:57;99926.97;;;15.15;87.71
72262;BME280;60173;52.112;8.648;2022-09-09T05:57:24;99920.81;;;15.19;87.50
72262;BME280;60173;52.112;8.648;2022-09-09T05:59:50;99926.88;;;15.36;87.18
72262;BME280;60173;52.112;8.648;2022-09-09T06:02:16;99922.41;;;15.69;86.17
72262;BME280;60173;52.112;8.648;2022-09-09T06:04:43;99926.25;;;16.20;84.48
72262;BME280;60173;52.112;8.648;2022-09-09T06:07:09;99923.94;;;16.79;82.01
72262;BME280;60173;52.112;8.648;2022-09-09T06:09:35;99926.44;;;17.51;78.62
72262;BME280;60173;52.112;8.648;2022-09-09T06:12:02;99925.44;;;18.14;75.44
72262;BME280;60173;52.112;8.648;2022-09-09T06:14:28;99931.13;;;18.63;73.64
72262;BME280;60173;52.112;8.648;2022-09-09T06:16:55;99923.97;;;18.59;72.63
72262;BME280;60173;52.112;8.648;2022-09-09T06:19:21;99924.03;;;18.20;73.80
72262;BME280;60173;52.112;8.648;2022-09-09T06:21:47;99921.25;;;17.81;75.00
72262;BME280;60173;52.112;8.648;2022-09-09T06:24:13;99920.16;;;17.50;76.95
72262;BME280;60173;52.112;8.648;2022-09-09T06:26:40;99919.13;;;17.39;76.40
72262;BME280;60173;52.112;8.648;2022-09-09T06:29:07;99916.31;;;17.20;77.66
72262;BME280;60173;52.112;8.648;2022-09-09T06:31:35;99921.94;;;17.43;78.40
72262;BME280;60173;52.112;8.648;2022-09-09T06:34:04;99917.22;;;17.94;76.28
72262;BME280;60173;52.112;8.648;2022-09-09T06:36:33;99919.44;;;18.27;74.62
72262;BME280;60173;52.112;8.648;2022-09-09T06:39:00;99919.28;;;18.40;74.10
72262;BME280;60173;52.112;8.648;2022-09-09T06:41:29;99920.91;;;18.21;74.78
72262;BME280;60173;52.112;8.648;2022-09-09T06:43:56;99919.25;;;18.17;75.55
72262;BME280;60173;52.112;8.648;2022-09-09T06:46:24;99923.88;;;18.32;75.62
72262;BME280;60173;52.112;8.648;2022-09-09T06:48:51;99919.06;;;18.48;75.04
72262;BME280;60173;52.112;8.648;2022-09-09T06:51:19;99921.56;;;18.57;74.23
72262;BME280;60173;52.112;8.648;2022-09-09T06:53:46;99923.38;;;18.69;73.59
72262;BME280;60173;52.112;8.648;2022-09-09T06:58:44;99927.50;;;18.59;74.04
72262;BME280;60173;52.112;8.648;2022-09-09T07:01:13;99929.03;;;18.57;73.49
72262;BME280;60173;52.112;8.648;2022-09-09T07:03:41;99926.16;;;18.49;74.61
72262;BME280;60173;52.112;8.648;2022-09-09T07:06:09;99928.38;;;18.63;73.80
72262;BME280;60173;52.112;8.648;2022-09-09T07:08:40;99932.41;;;18.69;73.35
72262;BME280;60173;52.112;8.648;2022-09-09T07:11:07;99935.31;;;18.34;74.71
72262;BME280;60173;52.112;8.648;2022-09-09T07:13:37;99937.81;;;18.04;74.83
72262;BME280;60173;52.112;8.648;2022-09-09T07:18:31;99931.28;;;17.57;76.62
72262;BME280;60173;52.112;8.648;2022-09-09T07:20:58;99939.47;;;17.54;76.68
72262;BME280;60173;52.112;8.648;2022-09-09T07:23:24;99938.03;;;17.44;76.09
72262;BME280;60173;52.112;8.648;2022-09-09T07:25:51;99943.47;;;17.40;76.54
72262;BME280;60173;52.112;8.648;2022-09-09T07:28:17;99944.44;;;17.48;76.15
72262;BME280;60173;52.112;8.648;2022-09-09T07:30:43;99942.81;;;17.47;76.35
72262;BME280;60173;52.112;8.648;2022-09-09T07:33:18;99943.16;;;17.61;76.57
72262;BME280;60173;52.112;8.648;2022-09-09T07:35:44;99944.56;;;17.55;76.53
72262;BME280;60173;52.112;8.648;2022-09-09T07:38:11;99940.56;;;17.69;75.28
72262;BME280;60173;52.112;8.648;2022-09-09T07:40:37;99951.19;;;17.86;74.84
72262;BME280;60173;52.112;8.648;2022-09-09T07:43:04;99942.66;;;18.11;74.13
72262;BME280;60173;52.112;8.648;2022-09-09T07:45:30;99945.06;;;18.12;74.51
72262;BME280;60173;52.112;8.648;2022-09-09T07:47:56;99948.88;;;18.27;74.11
72262;BME280;60173;52.112;8.648;2022-09-09T07:50:23;99937.72;;;18.39;73.57
72262;BME280;60173;52.112;8.648;2022-09-09T07:52:51;99937.69;;;18.36;73.28
72262;BME280;60173;52.112;8.648;2022-09-09T07:55:17;99947.72;;;18.47;73.19
72262;BME280;60173;52.112;8.648;2022-09-09T07:57:43;99942.78;;;18.57;72.01
72262;BME280;60173;52.112;8.648;2022-09-09T08:00:13;99937.53;;;18.71;71.94
72262;BME280;60173;52.112;8.648;2022-09-09T08:02:40;99944.00;;;18.59;71.53
72262;BME280;60173;52.112;8.648;2022-09-09T08:05:06;99935.31;;;18.57;72.00
72262;BME280;60173;52.112;8.648;2022-09-09T08:07:33;99942.88;;;18.60;71.57
72262;BME280;60173;52.112;8.648;2022-09-09T08:09:59;99943.34;;;18.66;72.31
72262;BME280;60173;52.112;8.648;2022-09-09T08:12:25;99942.34;;;18.74;72.15
72262;BME280;60173;52.112;8.648;2022-09-09T08:14:51;99943.38;;;18.89;71.31
72262;BME280;60173;52.112;8.648;2022-09-09T08:17:21;99942.72;;;18.95;71.09
72262;BME280;60173;52.112;8.648;2022-09-09T08:19:47;99934.59;;;19.03;70.29
72262;BME280;60173;52.112;8.648;2022-09-09T08:22:13;99941.44;;;19.12;69.87
72262;BME280;60173;52.112;8.648;2022-09-09T08:24:40;99938.25;;;19.10;69.73
72262;BME280;60173;52.112;8.648;2022-09-09T08:27:06;99946.13;;;19.12;69.33
72262;BME280;60173;52.112;8.648;2022-09-09T08:29:33;99938.59;;;19.32;69.81
72262;BME280;60173;52.112;8.648;2022-09-09T08:31:59;99935.22;;;19.42;69.30
72262;BME280;60173;52.112;8.648;2022-09-09T08:34:26;99938.03;;;19.72;67.23
72262;BME280;60173;52.112;8.648;2022-09-09T08:36:53;99934.50;;;19.72;67.21
72262;BME280;60173;52.112;8.648;2022-09-09T08:39:21;99936.13;;;19.76;66.19
72262;BME280;60173;52.112;8.648;2022-09-09T08:44:45;99944.00;;;19.51;66.42
72262;BME280;60173;52.112;8.648;2022-09-09T08:53:08;99949.25;;;19.86;67.76
72262;BME280;60173;52.112;8.648;2022-09-09T08:55:52;99945.28;;;20.14;64.54
72262;BME280;60173;52.112;8.648;2022-09-09T08:58:21;99943.03;;;20.23;64.32
72262;BME280;60173;52.112;8.648;2022-09-09T09:12:00;99942.78;;;20.69;62.83
72262;BME280;60173;52.112;8.648;2022-09-09T09:14:33;99932.56;;;20.73;62.96
72262;BME280;60173;52.112;8.648;2022-09-09T09:17:02;99936.63;;;20.87;61.86
72262;BME280;60173;52.112;8.648;2022-09-09T09:19:33;99933.69;;;21.10;60.15
72262;BME280;60173;52.112;8.648;2022-09-09T09:22:10;99940.03;;;21.17;60.80
72262;BME280;60173;52.112;8.648;2022-09-09T09:24:53;99949.13;;;21.18;58.98
72262;BME280;60173;52.112;8.648;2022-09-09T09:27:34;99944.19;;;21.38;57.85
72262;BME280;60173;52.112;8.648;2022-09-09T09:30:12;99947.63;;;21.83;58.46
72262;BME280;60173;52.112;8.648;2022-09-09T09:32:58;99942.06;;;21.76;58.99
72262;BME280;60173;52.112;8.648;2022-09-09T09:35:26;99947.34;;;21.40;58.80
72262;BME280;60173;52.112;8.648;2022-09-09T09:37:52;99944.56;;;20.92;60.03
72262;BME280;60173;52.112;8.648;2022-09-09T09:40:57;99944.75;;;20.35;60.93
72262;BME280;60173;52.112;8.648;2022-09-09T09:43:32;99942.34;;;20.33;60.96
72262;BME280;60173;52.112;8.648;2022-09-09T09:45:59;99932.50;;;20.66;61.28
72262;BME280;60173;52.112;8.648;2022-09-09T09:48:43;99943.13;;;21.09;59.36
72262;BME280;60173;52.112;8.648;2022-09-09T09:51:12;99934.50;;;21.17;57.72
72262;BME280;60173;52.112;8.648;2022-09-09T09:53:39;99939.47;;;21.42;57.63
72262;BME280;60173;52.112;8.648;2022-09-09T09:56:08;99940.19;;;21.94;55.40
72262;BME280;60173;52.112;8.648;2022-09-09T10:01:27;99958.97;;;22.37;53.97
72262;BME280;60173;52.112;8.648;2022-09-09T10:03:59;99957.81;;;21.72;55.68
72262;BME280;60173;52.112;8.648;2022-09-09T10:08:56;99961.44;;;20.16;58.98
72262;BME280;60173;52.112;8.648;2022-09-09T10:11:30;99951.19;;;19.82;59.66
72262;BME280;60173;52.112;8.648;2022-09-09T10:14:24;99959.44;;;19.56;60.99
72262;BME280;60173;52.112;8.648;2022-09-09T10:17:32;99952.22;;;19.21;62.39
72262;BME280;60173;52.112;8.648;2022-09-09T10:20:15;99951.97;;;19.07;63.25
72262;BME280;60173;52.112;8.648;2022-09-09T10:22:47;99946.97;;;18.89;63.85
72262;BME280;60173;52.112;8.648;2022-09-09T10:25:25;99947.56;;;19.02;63.59
72262;BME280;60173;52.112;8.648;2022-09-09T10:31:00;99933.00;;;19.78;61.30
72262;BME280;60173;52.112;8.648;2022-09-09T10:36:13;99913.81;;;20.93;58.57
72262;BME280;60173;52.112;8.648;2022-09-09T10:38:47;99915.44;;;20.94;54.72
72262;BME280;60173;52.112;8.648;2022-09-09T10:41:36;99920.50;;;21.37;53.28
72262;BME280;60173;52.112;8.648;2022-09-09T10:50:11;99918.22;;;22.30;51.85
72262;BME280;60173;52.112;8.648;2022-09-09T10:53:06;99926.50;;;22.23;52.20
72262;BME280;60173;52.112;8.648;2022-09-09T10:55:41;99918.59;;;22.21;51.67
72262;BME280;60173;52.112;8.648;2022-09-09T10:58:17;99920.06;;;21.97;52.21
72262;BME280;60173;52.112;8.648;2022-09-09T11:00:56;99927.91;;;21.84;53.76
72262;BME280;60173;52.112;8.648;2022-09-09T11:03:28;99924.25;;;21.70;54.10
72262;BME280;60173;52.112;8.648;2022-09-09T11:06:04;99921.13;;;21.75;53.77
72262;BME280;60173;52.112;8.648;2022-09-09T11:08:33;99924.91;;;21.49;53.76
72262;BME280;60173;52.112;8.648;2022-09-09T11:11:18;99926.66;;;21.78;53.96
72262;BME280;60173;52.112;8.648;2022-09-09T11:16:23;99930.84;;;21.47;53.03
72262;BME280;60173;52.112;8.648;2022-09-09T11:18:57;99931.88;;;21.32;53.44
72262;BME280;60173;52.112;8.648;2022-09-09T11:21:30;99922.09;;;21.38;53.63
72262;BME280;60173;52.112;8.648;2022-09-09T11:24:10;99917.25;;;21.28;52.76
72262;BME280;60173;52.112;8.648;2022-09-09T11:26:44;99920.31;;;21.15;54.26
72262;BME280;60173;52.112;8.648;2022-09-09T11:29:33;99918.22;;;21.50;52.55
72262;BME280;60173;52.112;8.648;2022-09-09T11:32:21;99917.53;;;21.67;52.22
72262;BME280;60173;52.112;8.648;2022-09-09T11:40:24;99922.88;;;22.11;51.91
72262;BME280;60173;52.112;8.648;2022-09-09T11:43:24;99918.91;;;22.12;52.14
72262;BME280;60173;52.112;8.648;2022-09-09T11:45:54;99916.66;;;22.36;51.87
72262;BME280;60173;52.112;8.648;2022-09-09T11:48:31;99922.53;;;22.24;51.29
72262;BME280;60173;52.112;8.648;2022-09-09T11:51:00;99917.47;;;22.47;50.53
72262;BME280;60173;52.112;8.648;2022-09-09T11:53:26;99913.97;;;22.90;50.78
72262;BME280;60173;52.112;8.648;2022-09-09T11:56:08;99922.72;;;23.02;50.82
72262;BME280;60173;52.112;8.648;2022-09-09T11:58:38;99922.28;;;22.83;50.23
72262;BME280;60173;52.112;8.648;2022-09-09T12:01:16;99927.03;;;22.89;51.24
72262;BME280;60173;52.112;8.648;2022-09-09T12:04:00;99913.53;;;22.59;49.90
72262;BME280;60173;52.112;8.648;2022-09-09T12:06:33;99912.09;;;21.81;50.75
72262;BME280;60173;52.112;8.648;2022-09-09T12:09:18;99916.47;;;21.27;52.07
72262;BME280;60173;52.112;8.648;2022-09-09T12:11:46;99918.56;;;20.93;53.68
72262;BME280;60173;52.112;8.648;2022-09-09T12:14:42;99913.81;;;20.93;54.42
72262;BME280;60173;52.112;8.648;2022-09-09T12:17:19;99907.00;;;21.32;53.81
72262;BME280;60173;52.112;8.648;2022-09-09T12:19:47;99909.59;;;21.58;52.61
72262;BME280;60173;52.112;8.648;2022-09-09T12:22:35;99914.50;;;21.90;52.75
72262;BME280;60173;52.112;8.648;2022-09-09T12:25:26;99914.53;;;21.97;51.16
72262;BME280;60173;52.112;8.648;2022-09-09T12:33:17;99901.25;;;22.28;50.35
72262;BME280;60173;52.112;8.648;2022-09-09T12:35:47;99900.88;;;22.37;49.82
72262;BME280;60173;52.112;8.648;2022-09-09T12:38:31;99892.97;;;22.42;48.31
72262;BME280;60173;52.112;8.648;2022-09-09T12:40:59;99887.03;;;22.37;47.12
72262;BME280;60173;52.112;8.648;2022-09-09T12:43:27;99884.66;;;22.35;48.90
72262;BME280;60173;52.112;8.648;2022-09-09T12:46:00;99888.56;;;22.27;47.79
72262;BME280;60173;52.112;8.648;2022-09-09T12:48:34;99894.09;;;22.20;48.92
72262;BME280;60173;52.112;8.648;2022-09-09T12:51:03;99895.34;;;22.47;46.71
72262;BME280;60173;52.112;8.648;2022-09-09T12:53:36;99885.47;;;22.53;46.58
72262;BME280;60173;52.112;8.648;2022-09-09T12:56:07;99887.44;;;22.53;46.06
72262;BME280;60173;52.112;8.648;2022-09-09T12:58:37;99890.25;;;22.74;46.46
72262;BME280;60173;52.112;8.648;2022-09-09T13:01:05;99891.06;;;23.04;46.31
72262;BME280;60173;52.112;8.648;2022-09-09T13:03:33;99884.72;;;23.14;47.03
72262;BME280;60173;52.112;8.648;2022-09-09T13:06:18;99882.78;;;23.04;46.71
72262;BME280;60173;52.112;8.648;2022-09-09T13:08:45;99876.81;;;23.01;47.75
72262;BME280;60173;52.112;8.648;2022-09-09T13:11:36;99877.59;;;23.38;47.43
72262;BME280;60173;52.112;8.648;2022-09-09T13:14:04;99879.91;;;23.54;46.63
72262;BME280;60173;52.112;8.648;2022-09-09T13:16:33;99883.81;;;23.78;46.21
72262;BME280;60173;52.112;8.648;2022-09-09T13:19:09;99873.97;;;23.59;46.35
72262;BME280;60173;52.112;8.648;2022-09-09T13:21:40;99879.59;;;23.12;47.05
72262;BME280;60173;52.112;8.648;2022-09-09T13:24:27;99874.44;;;22.75;48.33
72262;BME280;60173;52.112;8.648;2022-09-09T13:27:22;99869.66;;;22.47;48.61
72262;BME280;60173;52.112;8.648;2022-09-09T13:29:53;99874.72;;;22.16;50.57
72262;BME280;60173;52.112;8.648;2022-09-09T13:32:20;99865.97;;;22.07;52.35
72262;BME280;60173;52.112;8.648;2022-09-09T13:34:54;99870.16;;;21.69;53.31
72262;BME280;60173;52.112;8.648;2022-09-09T13:37:26;99853.38;;;21.33;54.65
72262;BME280;60173;52.112;8.648;2022-09-09T13:39:53;99855.22;;;21.14;54.01
72262;BME280;60173;52.112;8.648;2022-09-09T13:42:28;99861.03;;;21.61;53.32
72262;BME280;60173;52.112;8.648;2022-09-09T13:44:56;99865.66;;;22.19;51.24
72262;BME280;60173;52.112;8.648;2022-09-09T13:47:33;99856.25;;;22.74;49.41
72262;BME280;60173;52.112;8.648;2022-09-09T13:52:44;99866.50;;;22.66;49.05
72262;BME280;60173;52.112;8.648;2022-09-09T13:55:10;99866.91;;;22.61;48.79
72262;BME280;60173;52.112;8.648;2022-09-09T13:57:37;99860.16;;;22.37;48.63
72262;BME280;60173;52.112;8.648;2022-09-09T14:00:04;99864.50;;;22.31;46.54
72262;BME280;60173;52.112;8.648;2022-09-09T14:02:32;99877.16;;;22.53;47.92
72262;BME280;60173;52.112;8.648;2022-09-09T14:04:59;99870.50;;;23.12;48.00
72262;BME280;60173;52.112;8.648;2022-09-09T14:07:25;99858.13;;;23.59;44.96
72262;BME280;60173;52.112;8.648;2022-09-09T14:09:52;99864.00;;;23.83;44.27
72262;BME280;60173;52.112;8.648;2022-09-09T14:12:19;99860.75;;;23.95;44.03
72262;BME280;60173;52.112;8.648;2022-09-09T14:14:45;99855.09;;;24.20;43.96
72262;BME280;60173;52.112;8.648;2022-09-09T14:17:11;99860.78;;;23.91;44.17
72262;BME280;60173;52.112;8.648;2022-09-09T14:19:37;99861.56;;;23.92;43.75
72262;BME280;60173;52.112;8.648;2022-09-09T14:22:04;99864.81;;;23.76;44.73
72262;BME280;60173;52.112;8.648;2022-09-09T14:24:30;99860.50;;;23.57;44.22
72262;BME280;60173;52.112;8.648;2022-09-09T14:26:56;99861.38;;;23.22;43.41
72262;BME280;60173;52.112;8.648;2022-09-09T14:29:23;99859.41;;;23.12;45.44
72262;BME280;60173;52.112;8.648;2022-09-09T14:31:49;99857.03;;;22.99;45.24
72262;BME280;60173;52.112;8.648;2022-09-09T14:34:16;99851.88;;;22.94;45.23
72262;BME280;60173;52.112;8.648;2022-09-09T14:36:42;99854.66;;;22.51;45.57
72262;BME280;60173;52.112;8.648;2022-09-09T14:39:08;99851.44;;;22.35;46.37
72262;BME280;60173;52.112;8.648;2022-09-09T14:41:35;99857.78;;;22.28;47.00
72262;BME280;60173;52.112;8.648;2022-09-09T14:44:01;99854.53;;;22.16;46.32
72262;BME280;60173;52.112;8.648;2022-09-09T14:46:28;99846.19;;;21.94;47.54
72262;BME280;60173;52.112;8.648;2022-09-09T14:48:54;99849.25;;;21.71;48.84
72262;BME280;60173;52.112;8.648;2022-09-09T14:51:23;99848.81;;;21.58;48.65
72262;BME280;60173;52.112;8.648;2022-09-09T14:53:55;99849.94;;;21.50;48.29
72262;BME280;60173;52.112;8.648;2022-09-09T14:56:24;99844.81;;;21.52;48.93
72262;BME280;60173;52.112;8.648;2022-09-09T14:58:53;99847.22;;;21.57;49.11